sensor_id;sensor_type;location;lat;lon;timestamp;temperature;humidity
32728;DHT22;55292;51.844;19.246;2022-11-11T00:01:21;4.40;99.90
32728;DHT22;55292;51.844;19.246;2022-11-11T00:06:42;4.50;99.90
32728;DHT22;55292;51.844;19.246;2022-11-11T00:12:04;4.40;99.90
32728;DHT22;55292;51.844;19.246;2022-11-11T00:17:25;4.30;99.90
32728;DHT22;55292;51.844;19.246;2022-11-11T00:23:07;4.20;99.90
32728;DHT22;55292;51.844;19.246;2022-11-11T00:28:53;4.30;99.90
32728;DHT22;55292;51.844;19.246;2022-11-11T00:34:14;4.20;99.90
32728;DHT22;55292;51.844;19.246;2022-11-11T00:39:35;4.20;99.90
32728;DHT22;55292;51.844;19.246;2022-11-11T00:44:56;4.20;99.90
32728;DHT22;55292;51.844;19.246;2022-11-11T00:50:21;4.10;99.90
32728;DHT22;55292;51.844;19.246;2022-11-11T00:56:01;4.10;99.90
32728;DHT22;55292;51.844;19.246;2022-11-11T01:01:23;3.60;99.90
32728;DHT22;55292;51.844;19.246;2022-11-11T01:06:44;3.50;99.90
32728;DHT22;55292;51.844;19.246;2022-11-11T01:12:06;3.90;99.90
32728;DHT22;55292;51.844;19.246;2022-11-11T01:17:28;4.00;99.90
32728;DHT22;55292;51.844;19.246;2022-11-11T01:22:49;4.00;99.90
32728;DHT22;55292;51.844;19.246;2022-11-11T01:28:10;4.10;99.90
32728;DHT22;55292;51.844;19.246;2022-11-11T01:33:32;4.30;99.90
32728;DHT22;55292;51.844;19.246;2022-11-11T01:38:55;4.30;99.90
32728;DHT22;55292;51.844;19.246;2022-11-11T01:44:39;4.60;99.90
32728;DHT22;55292;51.844;19.246;2022-11-11T01:50:01;4.60;99.90
32728;DHT22;55292;51.844;19.246;2022-11-11T01:55:23;4.60;99.90
32728;DHT22;55292;51.844;19.246;2022-11-11T02:00:45;4.40;99.90
32728;DHT22;55292;51.844;19.246;2022-11-11T02:06:07;4.20;99.90
32728;DHT22;55292;51.844;19.246;2022-11-11T02:11:31;4.10;99.90
32728;DHT22;55292;51.844;19.246;2022-11-11T02:17:14;4.20;99.90
32728;DHT22;55292;51.844;19.246;2022-11-11T02:22:59;4.20;99.90
32728;DHT22;55292;51.844;19.246;2022-11-11T02:28:24;4.10;99.90
32728;DHT22;55292;51.844;19.246;2022-11-11T02:33:47;4.00;99.90
32728;DHT22;55292;51.844;19.246;2022-11-11T02:39:09;4.10;99.90
32728;DHT22;55292;51.844;19.246;2022-11-11T02:44:30;4.20;99.90
32728;DHT22;55292;51.844;19.246;2022-11-11T02:49:51;4.10;99.90
32728;DHT22;55292;51.844;19.246;2022-11-11T02:55:13;4.20;99.90
32728;DHT22;55292;51.844;19.246;2022-11-11T03:00:35;4.30;99.90
32728;DHT22;55292;51.844;19.246;2022-11-11T03:05:56;4.40;99.90
32728;DHT22;55292;51.844;19.246;2022-11-11T03:11:17;4.60;99.90
32728;DHT22;55292;51.844;19.246;2022-11-11T03:16:48;4.70;99.90
32728;DHT22;55292;51.844;19.246;2022-11-11T03:22:28;4.90;99.90
32728;DHT22;55292;51.844;19.246;2022-11-11T03:33:34;5.30;99.90
32728;DHT22;55292;51.844;19.246;2022-11-11T03:38:55;5.30;99.90
32728;DHT22;55292;51.844;19.246;2022-11-11T03:44:16;5.50;99.90
32728;DHT22;55292;51.844;19.246;2022-11-11T03:49:37;5.50;99.90
32728;DHT22;55292;51.844;19.246;2022-11-11T03:54:59;5.70;99.90
32728;DHT22;55292;51.844;19.246;2022-11-11T04:00:27;5.90;99.90
32728;DHT22;55292;51.844;19.246;2022-11-11T04:05:48;5.90;99.90
32728;DHT22;55292;51.844;19.246;2022-11-11T04:11:44;5.90;99.90
32728;DHT22;55292;51.844;19.246;2022-11-11T04:17:05;5.90;99.90
32728;DHT22;55292;51.844;19.246;2022-11-11T04:22:27;5.90;99.90
32728;DHT22;55292;51.844;19.246;2022-11-11T04:27:48;5.80;99.90
32728;DHT22;55292;51.844;19.246;2022-11-11T04:33:31;5.80;99.90
32728;DHT22;55292;51.844;19.246;2022-11-11T04:38:52;5.80;99.90
32728;DHT22;55292;51.844;19.246;2022-11-11T04:44:31;5.70;99.90
32728;DHT22;55292;51.844;19.246;2022-11-11T04:50:10;5.70;99.90
32728;DHT22;55292;51.844;19.246;2022-11-11T04:55:32;5.70;99.90
32728;DHT22;55292;51.844;19.246;2022-11-11T05:01:11;5.80;99.90
32728;DHT22;55292;51.844;19.246;2022-11-11T05:06:52;5.70;99.90
32728;DHT22;55292;51.844;19.246;2022-11-11T05:12:46;5.60;99.90
32728;DHT22;55292;51.844;19.246;2022-11-11T05:18:08;5.50;99.90
32728;DHT22;55292;51.844;19.246;2022-11-11T05:23:48;5.60;99.90
32728;DHT22;55292;51.844;19.246;2022-11-11T05:29:28;5.60;99.90
32728;DHT22;55292;51.844;19.246;2022-11-11T05:34:50;5.60;99.90
32728;DHT22;55292;51.844;19.246;2022-11-11T05:40:11;5.60;99.90
32728;DHT22;55292;51.844;19.246;2022-11-11T05:45:33;5.50;99.90
32728;DHT22;55292;51.844;19.246;2022-11-11T05:50:57;5.50;99.90
32728;DHT22;55292;51.844;19.246;2022-11-11T05:56:18;5.40;99.90
32728;DHT22;55292;51.844;19.246;2022-11-11T06:01:39;5.50;99.90
32728;DHT22;55292;51.844;19.246;2022-11-11T06:07:00;5.50;99.90
32728;DHT22;55292;51.844;19.246;2022-11-11T06:12:21;5.70;99.90
32728;DHT22;55292;51.844;19.246;2022-11-11T06:17:42;5.80;99.90
32728;DHT22;55292;51.844;19.246;2022-11-11T06:23:04;5.90;99.90
32728;DHT22;55292;51.844;19.246;2022-11-11T06:28:25;6.10;99.90
32728;DHT22;55292;51.844;19.246;2022-11-11T06:33:46;6.20;99.90
32728;DHT22;55292;51.844;19.246;2022-11-11T06:39:08;6.30;99.90
32728;DHT22;55292;51.844;19.246;2022-11-11T06:44:29;6.40;99.90
32728;DHT22;55292;51.844;19.246;2022-11-11T06:49:53;6.50;99.90
32728;DHT22;55292;51.844;19.246;2022-11-11T06:55:14;6.60;99.90
32728;DHT22;55292;51.844;19.246;2022-11-11T07:00:37;6.70;99.90
32728;DHT22;55292;51.844;19.246;2022-11-11T07:06:00;6.90;99.90
32728;DHT22;55292;51.844;19.246;2022-11-11T07:11:21;6.90;99.90
32728;DHT22;55292;51.844;19.246;2022-11-11T07:16:43;7.00;99.90
32728;DHT22;55292;51.844;19.246;2022-11-11T07:22:04;7.10;99.90
32728;DHT22;55292;51.844;19.246;2022-11-11T07:27:25;7.20;99.90
32728;DHT22;55292;51.844;19.246;2022-11-11T07:32:49;7.40;99.90
32728;DHT22;55292;51.844;19.246;2022-11-11T07:38:10;7.50;99.90
32728;DHT22;55292;51.844;19.246;2022-11-11T07:43:32;7.70;99.90
32728;DHT22;55292;51.844;19.246;2022-11-11T07:48:53;8.00;99.90
32728;DHT22;55292;51.844;19.246;2022-11-11T07:54:15;8.10;99.90
32728;DHT22;55292;51.844;19.246;2022-11-11T07:59:36;8.20;99.90
32728;DHT22;55292;51.844;19.246;2022-11-11T08:04:57;8.60;99.90
32728;DHT22;55292;51.844;19.246;2022-11-11T08:10:18;8.80;99.90
32728;DHT22;55292;51.844;19.246;2022-11-11T08:15:39;8.90;99.90
32728;DHT22;55292;51.844;19.246;2022-11-11T08:21:03;9.00;99.90
32728;DHT22;55292;51.844;19.246;2022-11-11T08:26:28;9.10;99.90
32728;DHT22;55292;51.844;19.246;2022-11-11T08:31:51;9.10;99.90
32728;DHT22;55292;51.844;19.246;2022-11-11T08:37:13;9.20;99.90
32728;DHT22;55292;51.844;19.246;2022-11-11T08:42:34;9.30;99.90
32728;DHT22;55292;51.844;19.246;2022-11-11T08:47:55;9.50;99.90
32728;DHT22;55292;51.844;19.246;2022-11-11T08:53:16;9.50;99.90
32728;DHT22;55292;51.844;19.246;2022-11-11T08:58:37;9.60;99.90
32728;DHT22;55292;51.844;19.246;2022-11-11T09:03:59;9.60;99.90
32728;DHT22;55292;51.844;19.246;2022-11-11T09:09:40;9.60;99.90
32728;DHT22;55292;51.844;19.246;2022-11-11T09:15:01;9.70;99.90
32728;DHT22;55292;51.844;19.246;2022-11-11T09:20:23;9.80;99.90
32728;DHT22;55292;51.844;19.246;2022-11-11T09:25:45;9.90;99.90
32728;DHT22;55292;51.844;19.246;2022-11-11T09:31:06;9.90;99.90
32728;DHT22;55292;51.844;19.246;2022-11-11T09:36:48;10.00;99.90
32728;DHT22;55292;51.844;19.246;2022-11-11T09:48:01;10.20;99.90
32728;DHT22;55292;51.844;19.246;2022-11-11T09:53:37;10.30;99.90
32728;DHT22;55292;51.844;19.246;2022-11-11T10:09:55;10.20;99.90
32728;DHT22;55292;51.844;19.246;2022-11-11T10:15:18;10.30;99.90
32728;DHT22;55292;51.844;19.246;2022-11-11T10:20:41;10.30;99.90
32728;DHT22;55292;51.844;19.246;2022-11-11T10:37:35;10.40;99.90
32728;DHT22;55292;51.844;19.246;2022-11-11T10:42:58;10.50;99.90
32728;DHT22;55292;51.844;19.246;2022-11-11T10:48:29;10.50;99.90
32728;DHT22;55292;51.844;19.246;2022-11-11T10:54:01;10.60;99.90
32728;DHT22;55292;51.844;19.246;2022-11-11T11:05:19;10.60;99.90
32728;DHT22;55292;51.844;19.246;2022-11-11T11:11:21;10.60;99.90
32728;DHT22;55292;51.844;19.246;2022-11-11T11:16:51;10.70;99.90
32728;DHT22;55292;51.844;19.246;2022-11-11T11:22:15;10.80;99.90
32728;DHT22;55292;51.844;19.246;2022-11-11T11:27:37;10.80;99.90
32728;DHT22;55292;51.844;19.246;2022-11-11T11:33:00;10.80;99.90
32728;DHT22;55292;51.844;19.246;2022-11-11T11:38:40;10.90;99.90
32728;DHT22;55292;51.844;19.246;2022-11-11T11:44:01;10.70;99.90
32728;DHT22;55292;51.844;19.246;2022-11-11T12:00:39;10.60;99.90
32728;DHT22;55292;51.844;19.246;2022-11-11T12:23:16;10.80;99.90
32728;DHT22;55292;51.844;19.246;2022-11-11T12:29:01;10.90;99.90
32728;DHT22;55292;51.844;19.246;2022-11-11T12:39:50;11.00;99.90
32728;DHT22;55292;51.844;19.246;2022-11-11T12:45:18;11.00;99.90
32728;DHT22;55292;51.844;19.246;2022-11-11T12:51:16;11.00;99.90
32728;DHT22;55292;51.844;19.246;2022-11-11T13:02:15;10.90;99.90
32728;DHT22;55292;51.844;19.246;2022-11-11T13:13:29;11.00;99.90
32728;DHT22;55292;51.844;19.246;2022-11-11T13:19:01;11.00;99.90
32728;DHT22;55292;51.844;19.246;2022-11-11T13:24:31;10.90;99.90
32728;DHT22;55292;51.844;19.246;2022-11-11T13:35:47;10.90;99.90
32728;DHT22;55292;51.844;19.246;2022-11-11T13:41:09;10.80;99.90
32728;DHT22;55292;51.844;19.246;2022-11-11T13:46:41;10.70;99.90
32728;DHT22;55292;51.844;19.246;2022-11-11T13:52:55;10.50;99.90
32728;DHT22;55292;51.844;19.246;2022-11-11T13:58:16;10.40;99.90
32728;DHT22;55292;51.844;19.246;2022-11-11T14:09:06;10.10;99.90
32728;DHT22;55292;51.844;19.246;2022-11-11T14:19:52;10.00;99.90
32728;DHT22;55292;51.844;19.246;2022-11-11T14:25:26;10.00;99.90
32728;DHT22;55292;51.844;19.246;2022-11-11T14:30:48;9.90;99.90
32728;DHT22;55292;51.844;19.246;2022-11-11T14:36:36;9.80;99.90
32728;DHT22;55292;51.844;19.246;2022-11-11T14:42:01;9.70;99.90
32728;DHT22;55292;51.844;19.246;2022-11-11T14:47:45;9.60;99.90
32728;DHT22;55292;51.844;19.246;2022-11-11T14:53:15;9.40;99.90
32728;DHT22;55292;51.844;19.246;2022-11-11T14:58:37;9.30;99.90
32728;DHT22;55292;51.844;19.246;2022-11-11T15:04:01;9.10;99.90
32728;DHT22;55292;51.844;19.246;2022-11-11T15:09:45;9.20;99.90
32728;DHT22;55292;51.844;19.246;2022-11-11T15:15:13;9.10;99.90
32728;DHT22;55292;51.844;19.246;2022-11-11T15:20:52;9.10;99.90
32728;DHT22;55292;51.844;19.246;2022-11-11T15:26:44;8.90;99.90
32728;DHT22;55292;51.844;19.246;2022-11-11T15:37:35;8.70;99.90
32728;DHT22;55292;51.844;19.246;2022-11-11T15:42:56;8.60;99.90
32728;DHT22;55292;51.844;19.246;2022-11-11T15:48:26;8.50;99.90
32728;DHT22;55292;51.844;19.246;2022-11-11T15:53:48;8.50;99.90
32728;DHT22;55292;51.844;19.246;2022-11-11T15:59:23;8.40;99.90
32728;DHT22;55292;51.844;19.246;2022-11-11T16:04:54;8.40;99.90
32728;DHT22;55292;51.844;19.246;2022-11-11T16:10:36;8.40;99.90
32728;DHT22;55292;51.844;19.246;2022-11-11T16:16:13;8.50;99.90
32728;DHT22;55292;51.844;19.246;2022-11-11T16:21:59;8.60;99.90
32728;DHT22;55292;51.844;19.246;2022-11-11T16:27:31;8.80;99.90
32728;DHT22;55292;51.844;19.246;2022-11-11T16:32:52;8.90;99.90
32728;DHT22;55292;51.844;19.246;2022-11-11T16:38:31;9.00;99.90
32728;DHT22;55292;51.844;19.246;2022-11-11T16:43:56;9.00;99.90
32728;DHT22;55292;51.844;19.246;2022-11-11T16:49:36;9.10;99.90
32728;DHT22;55292;51.844;19.246;2022-11-11T16:54:59;9.10;99.90
32728;DHT22;55292;51.844;19.246;2022-11-11T17:00:21;9.20;99.90
32728;DHT22;55292;51.844;19.246;2022-11-11T17:05:55;9.20;99.90
32728;DHT22;55292;51.844;19.246;2022-11-11T17:17:00;9.20;99.90
32728;DHT22;55292;51.844;19.246;2022-11-11T17:22:22;9.20;99.90
32728;DHT22;55292;51.844;19.246;2022-11-11T17:27:43;9.20;99.90
32728;DHT22;55292;51.844;19.246;2022-11-11T17:33:05;9.20;99.90
32728;DHT22;55292;51.844;19.246;2022-11-11T17:38:27;9.20;99.90
32728;DHT22;55292;51.844;19.246;2022-11-11T17:43:48;9.30;99.90
32728;DHT22;55292;51.844;19.246;2022-11-11T17:49:09;9.20;99.90
32728;DHT22;55292;51.844;19.246;2022-11-11T17:54:33;9.30;99.90
32728;DHT22;55292;51.844;19.246;2022-11-11T17:59:55;9.30;99.90
32728;DHT22;55292;51.844;19.246;2022-11-11T18:05:16;9.20;99.90
32728;DHT22;55292;51.844;19.246;2022-11-11T18:10:37;9.20;99.90
32728;DHT22;55292;51.844;19.246;2022-11-11T18:15:58;9.30;99.90
32728;DHT22;55292;51.844;19.246;2022-11-11T18:21:27;9.20;99.90
32728;DHT22;55292;51.844;19.246;2022-11-11T18:26:48;9.10;99.90
32728;DHT22;55292;51.844;19.246;2022-11-11T18:32:10;9.10;99.90
32728;DHT22;55292;51.844;19.246;2022-11-11T18:37:31;9.00;99.90
32728;DHT22;55292;51.844;19.246;2022-11-11T18:42:52;9.10;99.90
32728;DHT22;55292;51.844;19.246;2022-11-11T18:48:14;9.00;99.90
32728;DHT22;55292;51.844;19.246;2022-11-11T18:53:36;9.00;99.90
32728;DHT22;55292;51.844;19.246;2022-11-11T18:58:59;9.00;99.90
32728;DHT22;55292;51.844;19.246;2022-11-11T19:04:20;9.00;99.90
32728;DHT22;55292;51.844;19.246;2022-11-11T19:09:42;9.00;99.90
32728;DHT22;55292;51.844;19.246;2022-11-11T19:15:04;8.90;99.90
32728;DHT22;55292;51.844;19.246;2022-11-11T19:20:25;8.90;99.90
32728;DHT22;55292;51.844;19.246;2022-11-11T19:25:46;8.80;99.90
32728;DHT22;55292;51.844;19.246;2022-11-11T19:31:17;8.70;99.90
32728;DHT22;55292;51.844;19.246;2022-11-11T19:36:39;8.70;99.90
32728;DHT22;55292;51.844;19.246;2022-11-11T19:42:00;8.60;99.90
32728;DHT22;55292;51.844;19.246;2022-11-11T19:47:21;8.50;99.90
32728;DHT22;55292;51.844;19.246;2022-11-11T19:52:42;8.30;99.90
32728;DHT22;55292;51.844;19.246;2022-11-11T19:58:04;8.10;99.90
32728;DHT22;55292;51.844;19.246;2022-11-11T20:03:25;7.90;99.90
32728;DHT22;55292;51.844;19.246;2022-11-11T20:08:47;7.60;99.90
32728;DHT22;55292;51.844;19.246;2022-11-11T20:14:08;7.50;99.90
32728;DHT22;55292;51.844;19.246;2022-11-11T20:19:29;7.50;99.90
32728;DHT22;55292;51.844;19.246;2022-11-11T20:24:51;7.60;99.90
32728;DHT22;55292;51.844;19.246;2022-11-11T20:30:12;7.40;99.90
32728;DHT22;55292;51.844;19.246;2022-11-11T20:35:33;7.20;99.90
32728;DHT22;55292;51.844;19.246;2022-11-11T20:41:04;6.90;99.90
32728;DHT22;55292;51.844;19.246;2022-11-11T20:46:25;6.60;99.90
32728;DHT22;55292;51.844;19.246;2022-11-11T20:51:46;6.50;99.90
32728;DHT22;55292;51.844;19.246;2022-11-11T20:57:08;6.30;99.90
32728;DHT22;55292;51.844;19.246;2022-11-11T21:02:29;6.00;99.90
32728;DHT22;55292;51.844;19.246;2022-11-11T21:07:50;5.70;99.90
32728;DHT22;55292;51.844;19.246;2022-11-11T21:13:11;5.30;99.90
32728;DHT22;55292;51.844;19.246;2022-11-11T21:18:33;5.20;99.90
32728;DHT22;55292;51.844;19.246;2022-11-11T21:24:05;5.30;99.90
32728;DHT22;55292;51.844;19.246;2022-11-11T21:29:26;5.30;99.90
32728;DHT22;55292;51.844;19.246;2022-11-11T21:34:48;5.20;99.90
32728;DHT22;55292;51.844;19.246;2022-11-11T21:40:10;5.00;99.90
32728;DHT22;55292;51.844;19.246;2022-11-11T21:45:31;4.90;99.90
32728;DHT22;55292;51.844;19.246;2022-11-11T21:50:53;4.80;99.90
32728;DHT22;55292;51.844;19.246;2022-11-11T21:56:20;4.70;99.90
32728;DHT22;55292;51.844;19.246;2022-11-11T22:01:43;4.50;99.90
32728;DHT22;55292;51.844;19.246;2022-11-11T22:07:05;4.40;99.90
32728;DHT22;55292;51.844;19.246;2022-11-11T22:12:27;4.20;99.90
32728;DHT22;55292;51.844;19.246;2022-11-11T22:18:00;4.10;99.90
32728;DHT22;55292;51.844;19.246;2022-11-11T22:23:21;3.90;99.90
32728;DHT22;55292;51.844;19.246;2022-11-11T22:28:43;3.80;99.90
32728;DHT22;55292;51.844;19.246;2022-11-11T22:34:11;3.80;99.90
32728;DHT22;55292;51.844;19.246;2022-11-11T22:39:33;3.60;99.90
32728;DHT22;55292;51.844;19.246;2022-11-11T22:44:54;3.70;99.90
32728;DHT22;55292;51.844;19.246;2022-11-11T22:50:15;3.70;99.90
32728;DHT22;55292;51.844;19.246;2022-11-11T22:55:37;3.60;99.90
32728;DHT22;55292;51.844;19.246;2022-11-11T23:01:03;3.60;99.90
32728;DHT22;55292;51.844;19.246;2022-11-11T23:11:47;2.90;99.90
32728;DHT22;55292;51.844;19.246;2022-11-11T23:17:08;3.00;99.90
32728;DHT22;55292;51.844;19.246;2022-11-11T23:22:29;3.10;99.90
32728;DHT22;55292;51.844;19.246;2022-11-11T23:27:51;2.90;99.90
32728;DHT22;55292;51.844;19.246;2022-11-11T23:33:12;3.10;99.90
32728;DHT22;55292;51.844;19.246;2022-11-11T23:38:34;3.30;99.90
32728;DHT22;55292;51.844;19.246;2022-11-11T23:43:55;3.30;99.90
32728;DHT22;55292;51.844;19.246;2022-11-11T23:49:16;3.00;99.90
32728;DHT22;55292;51.844;19.246;2022-11-11T23:54:38;2.80;99.90
32728;DHT22;55292;51.844;19.246;2022-11-11T23:59:58;2.70;99.90
